Kaltag, AK

1:19 PM AKST on February 11, 2016 (GMT -0900)
Kaltag | | Change Station
CLOSE
Current Station
Airport
Location: Kaltag,
Elevation: 200 ft
Nearby Weather Stations

Elev 200 ft 64.32 °N, 158.74 °W | Updated 26 minutes ago

Clear
Clear
-2 °F
Feels Like -2 °F
N
0
Wind Variable Wind from North

Today
High -- | Low -- °F
--% Chance of Precip.
Yesterday
High -- | Low -- °F
Precip. -- in
Pressure 29.80 in
Visibility 10.0 miles
Clouds Clear
Dew Point -6 °F
Humidity 83%
Rainfall 0.00 in
Snow Depth Not available.
9:45 AM 5:54 PM
Waxing Crescent, 15% visible
METAR PAKV 112153Z AUTO 00000KT 10SM CLR M19/M21 A2977 RMK AO2 SLP089 T11891211 TSNO
Pressure 29.80 in
Visibility 10.0 miles
Clouds Clear
Dew Point -6 °F
Humidity 83%
Rainfall 0.00 in
Snow Depth Not available.
9:45 AM 5:54 PM
Waxing Crescent, 15% visible
METAR PAKV 112153Z AUTO 00000KT 10SM CLR M19/M21 A2977 RMK AO2 SLP089 T11891211 TSNO

10-Day Weather Forecast

Almanac

Astronomy

Feb. 11, 2016 Rise Set
Actual Time
Civil Twilight
Nautical Twilight
Astronomical Twilight
Moon
Length of Visible Light
Length of Day
Tomorrow will be .
, % of the Moon is Illuminated

Today's Extremes

State Highs State Lows

Community

WunderPhotos

Upload Photos

1,892,171 photos uploaded!

WunderBlog® & News

Nearby

Air Quality

  Air Quality AQ Index Pollutant
Not available.

Snow Depth

Station Depth Elevation

Earthquake Activity

City Distance Mag. Time & Date
Minimum magnitude displayed is 2.5.

Coastal Water Temperatures

Place Temperature

Stations

Nearby Weather Stations

Station Location Temp. Windchill Dew Point Humidity Wind Precip. Elev Updated Type
                   

Watches & Warnings

There are currently no watches in effect.